Time;durP1;ratioP1;P1;durP2;ratioP2;P2;SDS_P1;SDS_P2;PMS_P1;PMS_P2;Temp;Humidity;BMP_temperature;BMP_pressure;BME280_temperature;BME280_humidity;BME280_pressure;Samples;Min_cycle;Max_cycle;Signal;HPM_P1;HPM_P2
2022/12/20 00:00:45;;;;;;;;;;;25.80;79.50;;;;;;5095700;28;19974;-71
2022/12/20 00:03:12;;;;;;;;;;;25.70;79.40;;;;;;5089666;28;20293;-70
2022/12/20 00:05:39;;;;;;;;;;;25.50;79.90;;;;;;5088734;28;19922;-70
2022/12/20 00:08:06;;;;;;;;;;;25.40;79.20;;;;;;5082250;28;19916;-73
2022/12/20 00:10:40;;;;;;;;;;;25.60;78.90;;;;;;5091486;28;20371;-73
2022/12/20 00:13:07;;;;;;;;;;;25.90;78.40;;;;;;5082202;28;19916;-70
2022/12/20 00:15:37;;;;;;;;;;;26.10;78.10;;;;;;5071921;28;19912;-75
2022/12/20 00:18:04;;;;;;;;;;;26.20;77.50;;;;;;5077229;28;19912;-73
2022/12/20 00:20:30;;;;;;;;;;;26.10;74.30;;;;;;5076604;28;20011;-74
2022/12/20 00:22:57;;;;;;;;;;;25.90;75.90;;;;;;5077219;28;19957;-74
2022/12/20 00:25:24;;;;;;;;;;;25.80;75.90;;;;;;5085869;28;19919;-76
2022/12/20 00:27:50;;;;;;;;;;;25.80;77.40;;;;;;5084145;28;20014;-73
2022/12/20 00:30:18;;;;;;;;;;;25.70;75.10;;;;;;5080044;28;19966;-70
2022/12/20 00:32:45;;;;;;;;;;;25.70;75.80;;;;;;5076560;28;19924;-72
2022/12/20 00:35:12;;;;;;;;;;;25.70;76.20;;;;;;5077455;28;20273;-74
2022/12/20 00:37:39;;;;;;;;;;;25.70;76.80;;;;;;5080229;28;20686;-72
2022/12/20 00:40:06;;;;;;;;;;;25.80;77.10;;;;;;5071950;28;19981;-70
2022/12/20 00:42:33;;;;;;;;;;;26.10;75.70;;;;;;5084098;28;19923;-74
2022/12/20 00:45:00;;;;;;;;;;;26.80;78.60;;;;;;5068148;28;20022;-73
2022/12/20 00:47:27;;;;;;;;;;;27.60;75.40;;;;;;5082405;28;19916;-73
2022/12/20 00:49:53;;;;;;;;;;;28.10;75.40;;;;;;5083608;28;20297;-70
2022/12/20 00:52:20;;;;;;;;;;;28.10;74.20;;;;;;5085140;28;20336;-71
2022/12/20 00:54:46;;;;;;;;;;;28.30;73.00;;;;;;5078494;28;19915;-74
2022/12/20 00:57:13;;;;;;;;;;;28.10;74.00;;;;;;5085877;28;19916;-73
2022/12/20 00:59:40;;;;;;;;;;;27.80;73.80;;;;;;5090653;28;19920;-71
2022/12/20 01:02:06;;;;;;;;;;;27.50;73.80;;;;;;5083052;28;20000;-72
2022/12/20 01:04:33;;;;;;;;;;;27.20;73.40;;;;;;5081997;28;20006;-73
2022/12/20 01:07:00;;;;;;;;;;;26.90;74.00;;;;;;5087089;28;19926;-74
2022/12/20 01:09:27;;;;;;;;;;;26.80;73.40;;;;;;5079368;28;20001;-73
2022/12/20 01:11:53;;;;;;;;;;;26.70;73.30;;;;;;5069209;28;19928;-73
2022/12/20 01:14:20;;;;;;;;;;;26.60;74.50;;;;;;5085668;28;19927;-74
2022/12/20 01:16:47;;;;;;;;;;;26.50;74.50;;;;;;5076502;28;19917;-73
2022/12/20 01:19:15;;;;;;;;;;;26.30;74.90;;;;;;5084942;28;19965;-76
2022/12/20 01:21:45;;;;;;;;;;;26.00;75.40;;;;;;5087364;28;19928;-73
2022/12/20 01:24:13;;;;;;;;;;;25.90;75.80;;;;;;5070713;28;19958;-74
2022/12/20 01:26:39;;;;;;;;;;;25.70;75.90;;;;;;5070972;28;19916;-69
2022/12/20 01:29:06;;;;;;;;;;;25.60;75.70;;;;;;5074354;28;19916;-69
2022/12/20 01:31:35;;;;;;;;;;;25.60;75.70;;;;;;5072340;28;20315;-70
2022/12/20 01:34:01;;;;;;;;;;;25.50;76.10;;;;;;5072824;28;20381;-72
2022/12/20 01:36:30;;;;;;;;;;;25.50;76.40;;;;;;5081517;28;19912;-72
2022/12/20 01:38:58;;;;;;;;;;;25.50;76.10;;;;;;5073101;28;19995;-71
2022/12/20 01:41:25;;;;;;;;;;;25.30;76.00;;;;;;5070184;28;19920;-69
2022/12/20 01:43:57;;;;;;;;;;;25.30;77.00;;;;;;5070763;28;19971;-72
2022/12/20 01:46:25;;;;;;;;;;;25.20;76.30;;;;;;5057173;28;19919;-71
2022/12/20 01:49:00;;;;;;;;;;;25.30;76.80;;;;;;5073292;28;19923;-70
2022/12/20 01:51:28;;;;;;;;;;;25.40;77.00;;;;;;5078485;28;19924;-70
2022/12/20 01:53:57;;;;;;;;;;;25.70;76.70;;;;;;5090949;28;20373;-71
2022/12/20 01:56:24;;;;;;;;;;;26.00;76.40;;;;;;5081221;28;19912;-68
2022/12/20 01:58:52;;;;;;;;;;;26.30;76.10;;;;;;5090917;28;20601;-68
2022/12/20 02:01:21;;;;;;;;;;;27.10;75.80;;;;;;5085502;28;19913;-70
2022/12/20 02:03:49;;;;;;;;;;;27.50;74.70;;;;;;5089522;28;19923;-70
2022/12/20 02:06:20;;;;;;;;;;;27.60;73.60;;;;;;5073846;28;19916;-69
2022/12/20 02:08:48;;;;;;;;;;;27.40;73.80;;;;;;5072103;28;19923;-70
2022/12/20 02:11:18;;;;;;;;;;;27.20;73.70;;;;;;5069885;28;21671;-73
2022/12/20 02:13:47;;;;;;;;;;;27.00;73.50;;;;;;5072379;28;19912;-74
2022/12/20 02:16:19;;;;;;;;;;;26.70;74.20;;;;;;5073922;28;20481;-72
2022/12/20 02:18:51;;;;;;;;;;;26.50;75.20;;;;;;5081835;28;19995;-71
2022/12/20 02:21:23;;;;;;;;;;;26.50;75.10;;;;;;5078375;28;19966;-73
2022/12/20 02:24:04;;;;;;;;;;;26.60;75.60;;;;;;5087126;28;19912;-67
2022/12/20 02:26:31;;;;;;;;;;;26.70;75.70;;;;;;5080064;28;19930;-70
2022/12/20 02:29:07;;;;;;;;;;;26.70;74.50;;;;;;5075116;28;19920;-71
2022/12/20 02:31:46;;;;;;;;;;;26.70;74.40;;;;;;5074899;28;19935;-69
2022/12/20 02:34:13;;;;;;;;;;;26.60;73.90;;;;;;5076462;28;19920;-70
2022/12/20 02:36:40;;;;;;;;;;;26.60;74.40;;;;;;5082606;28;20330;-67
2022/12/20 02:39:15;;;;;;;;;;;26.60;74.60;;;;;;5075073;28;19920;-69
2022/12/20 02:41:43;;;;;;;;;;;26.60;74.10;;;;;;5078843;28;20018;-67
2022/12/20 02:46:58;;;;;;;;;;;26.50;73.80;;;;;;5091610;28;20385;-67
2022/12/20 02:49:37;;;;;;;;;;;26.40;74.40;;;;;;5079467;28;19920;-74
2022/12/20 02:52:05;;;;;;;;;;;26.50;75.10;;;;;;5085218;28;19920;-67
2022/12/20 02:54:32;;;;;;;;;;;26.70;74.20;;;;;;5086201;28;20003;-67
2022/12/20 02:57:21;;;;;;;;;;;26.70;73.70;;;;;;5074392;28;20046;-68
2022/12/20 03:00:00;;;;;;;;;;;26.80;73.80;;;;;;5068117;28;20294;-68
2022/12/20 03:02:27;;;;;;;;;;;27.00;73.40;;;;;;5075233;28;19916;-67
2022/12/20 03:04:55;;;;;;;;;;;27.00;73.30;;;;;;5075704;28;19916;-67
2022/12/20 03:07:22;;;;;;;;;;;27.10;74.40;;;;;;5067140;28;20006;-68
2022/12/20 03:09:49;;;;;;;;;;;27.10;72.80;;;;;;5075945;28;20278;-71
2022/12/20 03:12:16;;;;;;;;;;;26.90;72.20;;;;;;5074397;28;20114;-71
2022/12/20 03:14:42;;;;;;;;;;;26.60;73.40;;;;;;5083393;28;19912;-69
2022/12/20 03:19:45;;;;;;;;;;;26.70;73.60;;;;;;5516617;22;19925;-72
2022/12/20 03:22:11;;;;;;;;;;;27.20;73.60;;;;;;5029252;28;20564;-75
2022/12/20 03:24:38;;;;;;;;;;;28.00;73.20;;;;;;5016243;28;19914;-74
2022/12/20 03:27:05;;;;;;;;;;;28.40;72.50;;;;;;5012266;28;19922;-69
2022/12/20 03:29:31;;;;;;;;;;;28.30;72.40;;;;;;5031205;28;19967;-73
2022/12/20 03:31:58;;;;;;;;;;;27.90;72.60;;;;;;5016876;28;19961;-74
2022/12/20 03:34:25;;;;;;;;;;;27.50;72.50;;;;;;5033657;28;19920;-76
2022/12/20 03:36:51;;;;;;;;;;;27.10;72.70;;;;;;5030343;28;19913;-76
2022/12/20 03:39:18;;;;;;;;;;;26.70;73.00;;;;;;5028513;28;19917;-74
2022/12/20 03:41:45;;;;;;;;;;;26.30;74.80;;;;;;5029290;28;19921;-73
2022/12/20 03:44:11;;;;;;;;;;;25.90;75.80;;;;;;5023349;28;20655;-71
2022/12/20 03:46:38;;;;;;;;;;;25.40;76.80;;;;;;5027958;28;19924;-76
2022/12/20 03:49:05;;;;;;;;;;;25.20;77.80;;;;;;5023162;28;19991;-73
2022/12/20 03:51:31;;;;;;;;;;;25.00;77.90;;;;;;5013393;28;19928;-74
2022/12/20 03:53:58;;;;;;;;;;;25.00;77.70;;;;;;5022540;28;19923;-75
2022/12/20 03:56:25;;;;;;;;;;;25.00;78.00;;;;;;5015144;28;19914;-77
2022/12/20 03:58:51;;;;;;;;;;;24.90;78.50;;;;;;5027974;28;20007;-71
2022/12/20 04:01:18;;;;;;;;;;;24.90;78.60;;;;;;5023618;28;20378;-70
2022/12/20 04:03:45;;;;;;;;;;;25.00;79.00;;;;;;5022942;28;19920;-70
2022/12/20 04:06:11;;;;;;;;;;;25.10;78.10;;;;;;5025776;28;20058;-69
2022/12/20 04:08:38;;;;;;;;;;;25.30;78.40;;;;;;5020240;28;19914;-68
2022/12/20 04:11:17;;;;;;;;;;;25.40;77.40;;;;;;5023299;28;19924;-69
2022/12/20 04:13:44;;;;;;;;;;;25.40;77.00;;;;;;5025403;28;20462;-69
2022/12/20 04:16:11;;;;;;;;;;;25.40;77.10;;;;;;5033460;28;19921;-71
2022/12/20 04:18:38;;;;;;;;;;;25.40;77.70;;;;;;5028188;28;19936;-70
2022/12/20 04:21:06;;;;;;;;;;;25.30;76.90;;;;;;5024457;28;19927;-71
2022/12/20 04:23:36;;;;;;;;;;;25.20;77.50;;;;;;5025043;28;19920;-71
2022/12/20 04:26:03;;;;;;;;;;;25.10;77.70;;;;;;5025544;28;19956;-70
2022/12/20 04:28:30;;;;;;;;;;;25.00;77.00;;;;;;5016326;28;20738;-71
2022/12/20 04:30:57;;;;;;;;;;;24.80;77.50;;;;;;5025659;28;19932;-70
2022/12/20 04:33:24;;;;;;;;;;;24.40;78.30;;;;;;5028459;28;19917;-69
2022/12/20 04:35:51;;;;;;;;;;;24.20;78.60;;;;;;5025411;28;20928;-69
2022/12/20 04:38:18;;;;;;;;;;;23.80;78.80;;;;;;5025998;28;20423;-70
2022/12/20 04:40:47;;;;;;;;;;;23.60;79.50;;;;;;5026611;28;20012;-68
2022/12/20 04:43:14;;;;;;;;;;;23.50;79.90;;;;;;5021251;28;20422;-71
2022/12/20 04:45:40;;;;;;;;;;;23.50;80.00;;;;;;5022931;28;19916;-70
2022/12/20 04:48:07;;;;;;;;;;;23.50;79.90;;;;;;5022782;28;19918;-70
2022/12/20 04:50:34;;;;;;;;;;;23.60;80.00;;;;;;5020456;28;19925;-68
2022/12/20 04:55:45;;;;;;;;;;;24.40;79.90;;;;;;5026605;28;20040;-69
2022/12/20 04:58:12;;;;;;;;;;;24.70;79.00;;;;;;5010881;28;19920;-70
2022/12/20 05:00:38;;;;;;;;;;;24.90;77.90;;;;;;5019166;28;19966;-71
2022/12/20 05:03:05;;;;;;;;;;;25.00;77.80;;;;;;5018884;28;19917;-72
2022/12/20 05:05:32;;;;;;;;;;;24.90;77.90;;;;;;5021622;28;19913;-69
2022/12/20 05:07:58;;;;;;;;;;;24.80;78.40;;;;;;5015488;28;20004;-69
2022/12/20 05:10:25;;;;;;;;;;;24.60;78.30;;;;;;5021162;28;19921;-69
2022/12/20 05:12:52;;;;;;;;;;;24.60;78.30;;;;;;5024790;28;19945;-68
2022/12/20 05:15:19;;;;;;;;;;;24.40;78.00;;;;;;5031447;28;19916;-68
2022/12/20 05:17:45;;;;;;;;;;;24.60;79.20;;;;;;5027118;28;19928;-69
2022/12/20 05:20:12;;;;;;;;;;;24.90;78.50;;;;;;5025659;28;21788;-69
2022/12/20 05:28:09;;;;;;;;;;;25.40;77.10;;;;;;5029554;28;19950;-71
2022/12/20 05:30:37;;;;;;;;;;;25.30;78.30;;;;;;5024864;28;19929;-69
2022/12/20 05:33:03;;;;;;;;;;;25.40;77.50;;;;;;5031107;28;20319;-72
2022/12/20 05:35:30;;;;;;;;;;;25.40;77.80;;;;;;5027104;28;19923;-71
2022/12/20 05:37:57;;;;;;;;;;;25.50;78.00;;;;;;5032237;28;20027;-72
2022/12/20 05:40:24;;;;;;;;;;;25.40;78.30;;;;;;5028423;28;20008;-71
2022/12/20 05:42:50;;;;;;;;;;;25.50;79.70;;;;;;5029084;28;20260;-71
2022/12/20 05:45:17;;;;;;;;;;;25.70;79.00;;;;;;5024944;28;19914;-71
2022/12/20 05:47:44;;;;;;;;;;;25.80;78.40;;;;;;5008005;28;19913;-70
2022/12/20 05:50:11;;;;;;;;;;;25.90;78.00;;;;;;5014410;28;19930;-69
2022/12/20 05:52:38;;;;;;;;;;;25.70;78.10;;;;;;5007469;28;21645;-73
2022/12/20 05:55:05;;;;;;;;;;;25.50;77.90;;;;;;5023141;28;19920;-71
2022/12/20 05:57:31;;;;;;;;;;;25.40;78.70;;;;;;5031169;28;20012;-71
2022/12/20 05:59:58;;;;;;;;;;;25.30;78.50;;;;;;5026619;28;19913;-70
2022/12/20 06:02:25;;;;;;;;;;;25.20;78.70;;;;;;5028251;28;20389;-70
2022/12/20 06:04:51;;;;;;;;;;;25.00;78.90;;;;;;5031691;28;19924;-71
2022/12/20 06:07:18;;;;;;;;;;;24.70;79.70;;;;;;5017531;28;19917;-71
2022/12/20 06:09:45;;;;;;;;;;;24.80;79.90;;;;;;5016836;28;19913;-70
2022/12/20 06:12:12;;;;;;;;;;;24.80;79.50;;;;;;5028740;28;19924;-69
2022/12/20 06:14:39;;;;;;;;;;;24.80;79.80;;;;;;5026787;28;20274;-71
2022/12/20 06:17:06;;;;;;;;;;;24.90;80.40;;;;;;5026760;28;19925;-71
2022/12/20 06:19:32;;;;;;;;;;;24.90;79.80;;;;;;5028895;28;20352;-68
2022/12/20 06:22:00;;;;;;;;;;;25.00;79.70;;;;;;5030171;28;19929;-72
2022/12/20 06:24:26;;;;;;;;;;;25.00;79.20;;;;;;5024865;28;20367;-67
2022/12/20 06:26:53;;;;;;;;;;;24.90;79.30;;;;;;5028587;28;20016;-71
2022/12/20 06:29:20;;;;;;;;;;;24.70;80.20;;;;;;5025608;28;19920;-72
2022/12/20 06:31:47;;;;;;;;;;;24.50;81.20;;;;;;5025112;28;19921;-72
2022/12/20 06:34:13;;;;;;;;;;;24.30;81.20;;;;;;5016503;28;19917;-72
2022/12/20 06:36:41;;;;;;;;;;;24.00;81.60;;;;;;5033522;28;19984;-71
2022/12/20 06:39:08;;;;;;;;;;;23.90;81.80;;;;;;5027272;28;19925;-67
2022/12/20 06:41:35;;;;;;;;;;;23.60;82.10;;;;;;5028012;28;19913;-70
2022/12/20 06:44:02;;;;;;;;;;;23.50;82.30;;;;;;5007528;28;20111;-71
2022/12/20 06:46:28;;;;;;;;;;;23.30;83.10;;;;;;5026534;28;19921;-71
2022/12/20 06:48:58;;;;;;;;;;;23.10;83.50;;;;;;5020631;28;19913;-71
2022/12/20 06:51:25;;;;;;;;;;;23.10;83.50;;;;;;5023630;28;19932;-71
2022/12/20 06:53:52;;;;;;;;;;;23.10;82.90;;;;;;5021081;28;19917;-72
2022/12/20 06:56:19;;;;;;;;;;;23.10;82.30;;;;;;5022338;28;19968;-70
2022/12/20 06:58:46;;;;;;;;;;;23.10;82.50;;;;;;5022053;28;19922;-71
2022/12/20 07:01:12;;;;;;;;;;;23.00;82.50;;;;;;5034717;28;20271;-68
2022/12/20 07:03:39;;;;;;;;;;;22.90;82.30;;;;;;5015063;28;20012;-67
2022/12/20 07:06:06;;;;;;;;;;;22.80;82.50;;;;;;5018673;28;19921;-69
2022/12/20 07:08:32;;;;;;;;;;;22.80;82.80;;;;;;5020161;28;19913;-70
2022/12/20 07:11:03;;;;;;;;;;;22.90;81.80;;;;;;5030720;28;19921;-69
2022/12/20 07:13:30;;;;;;;;;;;23.00;81.10;;;;;;5028348;28;19923;-69
2022/12/20 07:15:58;;;;;;;;;;;22.90;80.90;;;;;;5027471;28;19913;-71
2022/12/20 07:18:25;;;;;;;;;;;22.80;81.20;;;;;;5034546;28;19919;-71
2022/12/20 07:20:51;;;;;;;;;;;22.60;81.00;;;;;;5048734;28;19951;-72
2022/12/20 07:23:18;;;;;;;;;;;22.50;81.00;;;;;;5027374;28;20000;-72
2022/12/20 07:25:52;;;;;;;;;;;22.30;81.60;;;;;;5021673;28;20422;-71
2022/12/20 07:28:19;;;;;;;;;;;22.30;82.30;;;;;;5030242;28;19970;-70
2022/12/20 07:30:46;;;;;;;;;;;22.20;83.10;;;;;;5038016;28;20502;-70
2022/12/20 07:33:12;;;;;;;;;;;22.10;83.80;;;;;;5032894;28;20674;-72
2022/12/20 07:35:39;;;;;;;;;;;22.10;84.20;;;;;;5049714;28;20000;-69
2022/12/20 07:38:07;;;;;;;;;;;22.10;84.10;;;;;;5023051;28;20477;-72
2022/12/20 07:40:33;;;;;;;;;;;22.10;84.10;;;;;;5022459;28;19913;-70
2022/12/20 07:43:00;;;;;;;;;;;22.20;85.10;;;;;;5027046;28;19914;-70
2022/12/20 07:45:26;;;;;;;;;;;22.10;84.40;;;;;;5028924;28;19917;-71
2022/12/20 07:47:56;;;;;;;;;;;22.00;84.50;;;;;;5042815;28;20020;-70
2022/12/20 07:50:23;;;;;;;;;;;22.00;84.60;;;;;;5014711;28;19921;-71
2022/12/20 07:52:50;;;;;;;;;;;21.90;83.80;;;;;;5028673;28;20425;-71
2022/12/20 07:55:18;;;;;;;;;;;21.80;84.20;;;;;;5012707;28;19909;-70
2022/12/20 07:57:54;;;;;;;;;;;21.70;84.50;;;;;;5020394;28;19918;-70
2022/12/20 08:00:21;;;;;;;;;;;21.60;84.50;;;;;;5015976;28;19913;-70
2022/12/20 08:02:54;;;;;;;;;;;21.50;84.80;;;;;;5024636;28;19975;-70
2022/12/20 08:05:22;;;;;;;;;;;21.50;84.60;;;;;;5023353;28;20004;-71
2022/12/20 08:07:48;;;;;;;;;;;21.40;84.50;;;;;;5021831;28;20421;-72
2022/12/20 08:10:18;;;;;;;;;;;21.40;84.50;;;;;;5023308;28;19936;-72
2022/12/20 08:12:46;;;;;;;;;;;21.30;84.80;;;;;;5027103;28;20390;-70
2022/12/20 08:15:13;;;;;;;;;;;21.20;84.70;;;;;;5030016;28;20287;-71
2022/12/20 08:17:40;;;;;;;;;;;21.10;84.60;;;;;;5023165;28;19917;-72
2022/12/20 08:20:07;;;;;;;;;;;21.00;84.30;;;;;;5040861;28;19921;-70
2022/12/20 08:22:34;;;;;;;;;;;20.80;84.30;;;;;;5047441;28;19967;-70
2022/12/20 08:25:01;;;;;;;;;;;20.80;84.10;;;;;;5031460;28;19923;-70
2022/12/20 08:27:27;;;;;;;;;;;20.60;83.90;;;;;;5025227;28;20283;-68
2022/12/20 08:29:54;;;;;;;;;;;20.50;83.70;;;;;;5030471;28;19922;-71
2022/12/20 08:32:21;;;;;;;;;;;20.40;84.30;;;;;;5033880;28;20564;-67
2022/12/20 08:34:47;;;;;;;;;;;20.30;83.80;;;;;;5018892;28;19944;-68
2022/12/20 08:37:17;;;;;;;;;;;20.30;84.00;;;;;;5022242;28;19940;-69
2022/12/20 08:39:43;;;;;;;;;;;20.30;83.60;;;;;;5035078;28;19920;-68
2022/12/20 08:42:11;;;;;;;;;;;20.20;83.20;;;;;;5028085;28;20378;-70
2022/12/20 08:44:37;;;;;;;;;;;20.20;83.40;;;;;;5028181;28;19918;-68
2022/12/20 08:47:04;;;;;;;;;;;20.10;83.40;;;;;;5029802;28;19916;-70
2022/12/20 08:49:31;;;;;;;;;;;20.00;83.10;;;;;;5029429;28;19917;-69
2022/12/20 08:51:58;;;;;;;;;;;19.90;83.60;;;;;;5027687;28;20399;-72
2022/12/20 08:54:24;;;;;;;;;;;19.70;83.70;;;;;;5022171;28;19967;-70
2022/12/20 08:56:51;;;;;;;;;;;19.70;84.40;;;;;;5022136;28;20005;-71
2022/12/20 08:59:18;;;;;;;;;;;19.60;84.20;;;;;;5019465;28;20321;-71
2022/12/20 09:01:45;;;;;;;;;;;19.50;84.50;;;;;;5036871;28;19961;-70
2022/12/20 09:04:11;;;;;;;;;;;19.50;84.40;;;;;;5014533;28;20287;-69
2022/12/20 09:06:38;;;;;;;;;;;19.40;84.60;;;;;;5015627;28;20283;-69
2022/12/20 09:09:06;;;;;;;;;;;19.20;84.60;;;;;;5029309;28;20856;-68
2022/12/20 09:11:32;;;;;;;;;;;19.20;84.90;;;;;;5043058;28;20320;-68
2022/12/20 09:13:59;;;;;;;;;;;19.10;85.30;;;;;;5027241;28;19920;-70
2022/12/20 09:16:27;;;;;;;;;;;19.00;84.80;;;;;;5030106;28;20386;-70
2022/12/20 09:18:56;;;;;;;;;;;18.90;85.20;;;;;;5026370;28;20318;-70
2022/12/20 09:21:23;;;;;;;;;;;18.80;85.40;;;;;;5039693;28;19939;-70
2022/12/20 09:23:50;;;;;;;;;;;18.70;85.70;;;;;;5025740;28;19956;-69
2022/12/20 09:26:18;;;;;;;;;;;18.60;86.10;;;;;;5026770;28;19917;-69
2022/12/20 09:28:45;;;;;;;;;;;18.50;86.50;;;;;;5028528;28;19920;-69
2022/12/20 09:31:13;;;;;;;;;;;18.40;86.60;;;;;;5035325;28;19936;-69
2022/12/20 09:33:40;;;;;;;;;;;18.30;86.80;;;;;;5032558;28;19913;-69
2022/12/20 09:36:10;;;;;;;;;;;18.20;87.10;;;;;;5024753;28;19928;-70
2022/12/20 09:38:36;;;;;;;;;;;18.20;87.80;;;;;;5018447;28;19956;-69
2022/12/20 09:41:04;;;;;;;;;;;18.10;88.10;;;;;;5036233;28;19920;-72
2022/12/20 09:43:31;;;;;;;;;;;18.10;88.60;;;;;;5027715;28;19917;-70
2022/12/20 09:45:59;;;;;;;;;;;18.00;88.80;;;;;;5030576;28;20370;-70
2022/12/20 09:48:29;;;;;;;;;;;18.00;89.40;;;;;;5029064;28;19918;-70
2022/12/20 09:51:11;;;;;;;;;;;17.90;90.00;;;;;;5025902;28;19929;-68
2022/12/20 09:53:38;;;;;;;;;;;17.90;90.40;;;;;;5033404;28;19913;-69
2022/12/20 09:56:09;;;;;;;;;;;17.80;90.80;;;;;;5028680;28;19913;-71
2022/12/20 09:58:45;;;;;;;;;;;17.80;91.20;;;;;;5030595;28;19913;-66
2022/12/20 10:01:23;;;;;;;;;;;17.70;91.60;;;;;;5019636;28;19989;-69
2022/12/20 10:03:50;;;;;;;;;;;17.70;92.00;;;;;;5028546;28;20359;-69
2022/12/20 10:06:20;;;;;;;;;;;17.60;92.30;;;;;;5037180;28;19913;-69
2022/12/20 10:09:00;;;;;;;;;;;17.60;92.50;;;;;;5023365;28;19913;-69
2022/12/20 10:11:29;;;;;;;;;;;17.50;92.70;;;;;;5035833;28;19928;-69
2022/12/20 10:14:14;;;;;;;;;;;17.50;93.20;;;;;;5025181;28;19991;-69
2022/12/20 10:16:48;;;;;;;;;;;17.50;93.40;;;;;;5018037;28;19917;-69
2022/12/20 10:19:23;;;;;;;;;;;17.50;93.60;;;;;;5028269;28;19947;-69
2022/12/20 10:21:49;;;;;;;;;;;17.50;93.80;;;;;;5027984;28;20368;-68
2022/12/20 10:24:18;;;;;;;;;;;17.50;93.80;;;;;;5032321;28;19928;-69
2022/12/20 10:26:45;;;;;;;;;;;17.50;93.90;;;;;;5029699;28;19917;-69
2022/12/20 10:29:12;;;;;;;;;;;17.50;94.10;;;;;;5026247;28;19966;-68
2022/12/20 10:31:39;;;;;;;;;;;17.40;94.10;;;;;;5025958;28;19929;-69
2022/12/20 10:34:06;;;;;;;;;;;17.40;94.40;;;;;;5029096;28;19980;-70
2022/12/20 10:36:34;;;;;;;;;;;17.30;94.60;;;;;;5025544;28;19920;-70
2022/12/20 10:39:02;;;;;;;;;;;17.30;94.60;;;;;;5024579;28;19913;-69
2022/12/20 10:41:30;;;;;;;;;;;17.20;94.70;;;;;;5032639;28;20355;-68
2022/12/20 10:44:06;;;;;;;;;;;17.10;95.10;;;;;;5034672;28;19917;-69
2022/12/20 10:46:44;;;;;;;;;;;17.10;95.40;;;;;;5044216;28;19912;-69
2022/12/20 10:49:31;;;;;;;;;;;17.00;95.60;;;;;;5033768;28;19920;-67
2022/12/20 10:52:02;;;;;;;;;;;16.90;95.70;;;;;;5032766;28;20332;-69
2022/12/20 10:54:32;;;;;;;;;;;16.80;96.10;;;;;;5047265;28;19999;-70
2022/12/20 10:57:00;;;;;;;;;;;16.80;96.30;;;;;;5022113;28;19967;-70
2022/12/20 10:59:33;;;;;;;;;;;16.70;96.40;;;;;;5029440;28;19952;-69
2022/12/20 11:01:59;;;;;;;;;;;16.60;96.60;;;;;;5041083;28;19913;-69
2022/12/20 11:04:34;;;;;;;;;;;16.50;96.80;;;;;;5032572;28;20008;-69
2022/12/20 11:07:02;;;;;;;;;;;16.50;97.00;;;;;;5035545;28;20001;-69
2022/12/20 11:09:28;;;;;;;;;;;16.40;97.30;;;;;;5029287;28;19923;-69
2022/12/20 11:11:58;;;;;;;;;;;16.40;97.50;;;;;;5028830;28;19921;-69
2022/12/20 11:14:25;;;;;;;;;;;16.30;97.50;;;;;;5017001;28;19975;-69
2022/12/20 11:16:53;;;;;;;;;;;16.20;97.70;;;;;;5026081;28;19923;-69
2022/12/20 11:19:19;;;;;;;;;;;16.20;97.80;;;;;;5039880;28;19928;-69
2022/12/20 11:22:02;;;;;;;;;;;16.20;98.00;;;;;;5042872;28;19917;-69
2022/12/20 11:24:35;;;;;;;;;;;16.10;98.10;;;;;;5031788;28;20275;-70
2022/12/20 11:27:04;;;;;;;;;;;16.10;98.30;;;;;;5029177;28;20390;-68
2022/12/20 11:29:48;;;;;;;;;;;16.10;98.40;;;;;;5032157;28;19913;-68
2022/12/20 11:32:15;;;;;;;;;;;16.00;98.50;;;;;;5031174;28;19929;-69
2022/12/20 11:34:48;;;;;;;;;;;16.00;98.70;;;;;;5031025;28;20338;-68
2022/12/20 11:37:19;;;;;;;;;;;16.00;98.80;;;;;;5024795;28;19917;-68
2022/12/20 11:39:48;;;;;;;;;;;15.90;99.10;;;;;;5032140;28;19917;-70
2022/12/20 11:42:30;;;;;;;;;;;15.90;99.10;;;;;;5031068;28;20403;-69
2022/12/20 11:45:03;;;;;;;;;;;15.80;99.00;;;;;;5030625;28;19960;-70
2022/12/20 11:47:48;;;;;;;;;;;15.80;99.10;;;;;;5019039;28;20404;-71
2022/12/20 11:50:24;;;;;;;;;;;15.70;99.10;;;;;;5022709;28;20498;-69
2022/12/20 11:52:54;;;;;;;;;;;15.70;99.20;;;;;;5039268;28;19921;-70
2022/12/20 11:55:28;;;;;;;;;;;15.60;99.10;;;;;;5017791;28;19917;-68
2022/12/20 11:58:13;;;;;;;;;;;15.60;99.10;;;;;;5023796;28;19924;-69
2022/12/20 12:00:41;;;;;;;;;;;15.60;99.20;;;;;;5027757;28;19944;-70
2022/12/20 12:03:14;;;;;;;;;;;15.50;99.10;;;;;;5034080;28;19913;-69
2022/12/20 12:05:43;;;;;;;;;;;15.50;99.10;;;;;;5031460;28;19924;-69
2022/12/20 12:08:22;;;;;;;;;;;15.50;99.00;;;;;;5021340;28;20375;-69
2022/12/20 12:11:05;;;;;;;;;;;15.50;99.10;;;;;;5026419;28;19966;-69
2022/12/20 12:13:34;;;;;;;;;;;15.40;99.10;;;;;;5028076;28;19962;-69
2022/12/20 12:16:05;;;;;;;;;;;15.40;99.10;;;;;;5022455;28;20271;-68
2022/12/20 12:18:33;;;;;;;;;;;15.40;99.20;;;;;;5034753;28;19924;-68
2022/12/20 12:21:04;;;;;;;;;;;15.40;99.20;;;;;;5030806;28;19960;-68
2022/12/20 12:23:37;;;;;;;;;;;15.40;99.30;;;;;;5026356;28;19922;-69
2022/12/20 12:26:06;;;;;;;;;;;15.30;99.40;;;;;;5016647;28;20039;-69
2022/12/20 12:28:35;;;;;;;;;;;15.30;99.50;;;;;;5026991;28;19918;-70
2022/12/20 12:31:10;;;;;;;;;;;15.30;99.60;;;;;;5022375;28;20364;-69
2022/12/20 12:33:42;;;;;;;;;;;15.20;99.70;;;;;;5029976;28;19992;-69
2022/12/20 12:36:18;;;;;;;;;;;15.20;99.80;;;;;;5032140;28;19917;-69
2022/12/20 12:38:51;;;;;;;;;;;15.20;99.90;;;;;;5032980;28;20003;-69
2022/12/20 12:41:36;;;;;;;;;;;15.10;99.90;;;;;;5034087;28;19917;-69
2022/12/20 12:44:28;;;;;;;;;;;15.10;99.90;;;;;;5028591;28;19971;-68
2022/12/20 12:46:58;;;;;;;;;;;15.10;99.90;;;;;;4996726;28;19914;-68
2022/12/20 12:49:27;;;;;;;;;;;15.20;99.90;;;;;;5018881;28;19936;-68
2022/12/20 12:51:56;;;;;;;;;;;15.20;99.90;;;;;;5015962;28;19929;-68
2022/12/20 12:54:25;;;;;;;;;;;15.20;99.90;;;;;;5018910;28;19960;-69
2022/12/20 12:56:54;;;;;;;;;;;15.30;99.90;;;;;;5017775;28;19925;-68
2022/12/20 12:59:21;;;;;;;;;;;15.30;99.90;;;;;;5032270;28;19966;-69
2022/12/20 13:01:52;;;;;;;;;;;15.40;99.90;;;;;;5028650;28;20299;-69
2022/12/20 13:04:19;;;;;;;;;;;15.40;99.90;;;;;;5029000;28;19917;-68
2022/12/20 13:06:48;;;;;;;;;;;15.40;99.90;;;;;;5035068;28;20326;-69
2022/12/20 13:09:35;;;;;;;;;;;15.40;99.90;;;;;;5022242;28;20639;-70
2022/12/20 13:12:21;;;;;;;;;;;15.50;99.90;;;;;;5015540;28;20585;-70
2022/12/20 13:14:49;;;;;;;;;;;15.30;99.90;;;;;;5020883;28;20004;-69
2022/12/20 13:17:35;;;;;;;;;;;15.30;99.90;;;;;;5025556;28;19959;-69
2022/12/20 13:20:15;;;;;;;;;;;15.30;99.90;;;;;;5012396;28;20402;-69
2022/12/20 13:23:01;;;;;;;;;;;15.20;99.90;;;;;;5025891;28;20013;-70
2022/12/20 13:25:29;;;;;;;;;;;15.20;99.90;;;;;;5027799;28;20007;-69
2022/12/20 13:28:15;;;;;;;;;;;15.20;99.90;;;;;;5023915;28;19917;-70
2022/12/20 13:30:42;;;;;;;;;;;15.20;99.90;;;;;;5013495;28;19984;-69
2022/12/20 13:33:19;;;;;;;;;;;15.20;99.90;;;;;;5022072;28;19917;-69
2022/12/20 13:35:53;;;;;;;;;;;15.20;99.90;;;;;;5035519;28;19917;-71
2022/12/20 13:38:37;;;;;;;;;;;15.20;99.90;;;;;;5020113;28;19968;-70
2022/12/20 13:41:22;;;;;;;;;;;15.30;99.90;;;;;;5035305;28;20091;-70
2022/12/20 13:43:50;;;;;;;;;;;15.30;99.90;;;;;;5022250;28;19971;-72
2022/12/20 13:46:42;;;;;;;;;;;15.30;99.90;;;;;;5036216;28;20467;-71
2022/12/20 13:49:11;;;;;;;;;;;15.30;99.90;;;;;;5021405;28;20252;-68
2022/12/20 13:51:38;;;;;;;;;;;15.30;99.90;;;;;;5011882;28;19932;-70
2022/12/20 13:54:14;;;;;;;;;;;15.40;99.90;;;;;;5017245;28;19939;-70
2022/12/20 13:56:51;;;;;;;;;;;15.40;99.90;;;;;;5028436;28;19920;-71
2022/12/20 13:59:17;;;;;;;;;;;15.50;99.90;;;;;;5023034;28;19917;-71
2022/12/20 14:01:48;;;;;;;;;;;15.50;99.90;;;;;;5027992;28;19913;-70
2022/12/20 14:04:15;;;;;;;;;;;15.50;99.90;;;;;;5026199;28;19925;-69
2022/12/20 14:06:42;;;;;;;;;;;15.50;99.90;;;;;;5024968;28;19913;-69
2022/12/20 14:09:28;;;;;;;;;;;15.40;99.90;;;;;;5026786;28;19921;-70
2022/12/20 14:12:01;;;;;;;;;;;15.40;99.90;;;;;;5014591;28;19917;-71
2022/12/20 14:14:28;;;;;;;;;;;15.40;99.90;;;;;;5019687;28;20279;-71
2022/12/20 14:16:55;;;;;;;;;;;15.40;99.90;;;;;;5029523;28;19928;-69
2022/12/20 14:19:21;;;;;;;;;;;15.50;99.90;;;;;;5029055;28;19932;-69
2022/12/20 14:21:48;;;;;;;;;;;15.50;99.90;;;;;;5029880;28;19936;-69
2022/12/20 14:24:20;;;;;;;;;;;15.50;99.90;;;;;;5032429;28;19921;-71
2022/12/20 14:26:49;;;;;;;;;;;15.50;99.90;;;;;;5031893;28;19952;-71
2022/12/20 14:29:19;;;;;;;;;;;15.50;99.90;;;;;;5021803;28;19921;-71
2022/12/20 14:31:50;;;;;;;;;;;15.50;99.90;;;;;;5034103;28;20282;-71
2022/12/20 14:34:26;;;;;;;;;;;15.50;99.90;;;;;;5030772;28;19920;-70
2022/12/20 14:37:12;;;;;;;;;;;15.60;99.90;;;;;;5027979;28;20118;-71
2022/12/20 14:39:53;;;;;;;;;;;15.60;99.90;;;;;;5020867;28;19913;-71
2022/12/20 14:42:26;;;;;;;;;;;15.60;99.90;;;;;;5020971;28;19913;-80